Terminal Aerodrome Forecast
Issued by NWS

Home | Current Version | Previous Version | Text Only | Print | Product List | Glossary On
Versions: 1 2 3 4 5 6 7 8 9 10 11 12 13 14 15 16 17 18 19
000
FTUS44 KMAF 032338
TAFFST
TAF
KFST 032338Z 0400/0424 14011KT P6SM SCT050 BKN200
     FM041200 14012KT P6SM SCT020 BKN100
     FM041500 14014G20KT P6SM SCT040 BKN100=

USA.gov is the U.S. government's official web portal to all federal, state and local government web resources and services.